createdAt,value
2022-09-01T00:01:47.850Z,100079.71
2022-09-01T00:04:18.344Z,100078.16
2022-09-01T00:06:46.617Z,100081.66
2022-09-01T00:09:17.053Z,100084.23
2022-09-01T00:11:50.351Z,100083.46
2022-09-01T00:14:30.421Z,100082.37
2022-09-01T00:17:00.201Z,100086.48
2022-09-01T00:19:29.762Z,100082.66
2022-09-01T00:21:57.924Z,100086.95
2022-09-01T00:24:26.973Z,100082.70
2022-09-01T00:26:55.430Z,100080.67
2022-09-01T00:29:25.290Z,100084.68
2022-09-01T00:31:53.608Z,100085.46
2022-09-01T00:34:21.659Z,100078.02
2022-09-01T00:36:50.426Z,100082.73
2022-09-01T00:39:18.412Z,100083.65
2022-09-01T00:41:47.550Z,100085.38
2022-09-01T00:44:16.871Z,100085.65
2022-09-01T00:46:47.608Z,100084.27
2022-09-01T00:49:35.295Z,100078.82
2022-09-01T00:52:41.670Z,100081.44
2022-09-01T00:55:18.179Z,100078.16
2022-09-01T00:57:46.501Z,100079.96
2022-09-01T01:00:14.675Z,100078.67
2022-09-01T01:02:42.850Z,100078.98
2022-09-01T01:05:15.321Z,100072.90
2022-09-01T01:07:48.057Z,100072.44
2022-09-01T01:10:18.151Z,100068.95
2022-09-01T01:12:47.182Z,100067.19
2022-09-01T01:15:15.483Z,100069.93
2022-09-01T01:17:43.569Z,100070.52
2022-09-01T01:20:32.773Z,100062.49
2022-09-01T01:23:05.769Z,100054.48
2022-09-01T01:25:42.564Z,100053.46
2022-09-01T01:28:11.310Z,100052.77
2022-09-01T01:30:41.930Z,100047.98
2022-09-01T01:33:10.288Z,100044.41
2022-09-01T01:35:40.138Z,100043.89
2022-09-01T01:38:09.190Z,100041.16
2022-09-01T01:40:38.552Z,100041.29
2022-09-01T01:43:07.184Z,100044.82
2022-09-01T01:45:35.221Z,100039.89
2022-09-01T01:48:08.846Z,100046.16
2022-09-01T01:50:37.971Z,100051.77
2022-09-01T01:53:10.889Z,100047.45
2022-09-01T01:55:41.906Z,100043.50
2022-09-01T01:58:12.530Z,100045.27
2022-09-01T02:00:44.661Z,100044.80
2022-09-01T02:03:17.362Z,100043.84
2022-09-01T02:05:50.033Z,100039.59
2022-09-01T02:08:21.957Z,100031.65
2022-09-01T02:10:51.243Z,100033.92
2022-09-01T02:13:23.105Z,100034.33
2022-09-01T02:15:53.940Z,100026.96
2022-09-01T02:18:27.889Z,100028.53
2022-09-01T02:20:59.614Z,100030.43
2022-09-01T02:23:28.021Z,100033.30
2022-09-01T02:26:17.519Z,100029.81
2022-09-01T02:28:55.582Z,100036.20
2022-09-01T02:31:28.362Z,100037.79
2022-09-01T02:33:58.807Z,100040.63
2022-09-01T02:36:27.090Z,100044.91
2022-09-01T02:38:56.858Z,100045.75
2022-09-01T02:41:27.469Z,100043.89
2022-09-01T02:43:55.611Z,100043.80
2022-09-01T02:46:24.945Z,100040.81
2022-09-01T02:48:53.794Z,100043.94
2022-09-01T02:51:23.809Z,100037.61
2022-09-01T02:53:53.012Z,100032.05
2022-09-01T02:56:25.447Z,100029.52
2022-09-01T02:58:54.143Z,100033.50
2022-09-01T03:01:29.585Z,100036.71
2022-09-01T03:03:59.928Z,100040.42
2022-09-01T03:06:28.405Z,100041.48
2022-09-01T03:08:59.883Z,100044.90
2022-09-01T03:11:32.502Z,100046.92
2022-09-01T03:14:01.020Z,100039.25
2022-09-01T03:16:30.803Z,100035.50
2022-09-01T03:18:59.464Z,100035.25
2022-09-01T03:21:27.312Z,100040.64
2022-09-01T03:23:56.091Z,100042.09
2022-09-01T03:26:24.745Z,100041.30
2022-09-01T03:28:52.642Z,100036.83
2022-09-01T03:31:20.680Z,100033.48
2022-09-01T03:33:52.774Z,100030.67
2022-09-01T03:36:24.965Z,100031.94
2022-09-01T03:38:53.274Z,100038.13
2022-09-01T03:41:25.075Z,100041.27
2022-09-01T03:43:58.505Z,100051.02
2022-09-01T03:46:36.426Z,100050.91
2022-09-01T03:49:07.479Z,100048.25
2022-09-01T03:51:39.108Z,100045.92
2022-09-01T03:54:09.257Z,100047.96
2022-09-01T03:56:41.102Z,100045.50
2022-09-01T03:59:17.236Z,100059.11
2022-09-01T04:01:46.132Z,100062.36
2022-09-01T04:04:14.923Z,100062.23
2022-09-01T04:06:44.879Z,100061.96
2022-09-01T04:09:14.418Z,100056.30
2022-09-01T04:11:46.966Z,100061.73
2022-09-01T04:14:17.292Z,100061.79
2022-09-01T04:17:05.365Z,100067.05
2022-09-01T04:19:36.865Z,100067.91
2022-09-01T04:22:05.336Z,100068.88
2022-09-01T04:24:45.913Z,100071.02
2022-09-01T04:27:14.938Z,100067.50
2022-09-01T04:29:46.823Z,100060.65
2022-09-01T04:32:15.980Z,100055.90
2022-09-01T04:34:49.839Z,100061.73
2022-09-01T04:37:20.434Z,100058.66
2022-09-01T04:39:57.088Z,100051.42
2022-09-01T04:42:29.081Z,100047.69
2022-09-01T04:44:58.488Z,100047.67
2022-09-01T04:47:36.269Z,100043.61
2022-09-01T04:50:14.861Z,100038.59
2022-09-01T04:53:04.988Z,100036.36
2022-09-01T04:55:38.991Z,100040.23
2022-09-01T04:58:10.062Z,100048.38
2022-09-01T05:00:38.882Z,100051.84
2022-09-01T05:03:08.047Z,100051.93
2022-09-01T05:05:57.499Z,100041.52
2022-09-01T05:08:25.935Z,100032.39
2022-09-01T05:10:57.165Z,100028.64
2022-09-01T05:13:48.119Z,100027.89
2022-09-01T05:16:24.810Z,100030.48
2022-09-01T05:18:57.343Z,100028.84
2022-09-01T05:21:29.693Z,100021.80
2022-09-01T05:24:01.417Z,100020.64
2022-09-01T05:26:31.754Z,100018.21
2022-09-01T05:29:01.780Z,100013.55
2022-09-01T05:31:35.250Z,100018.21
2022-09-01T05:34:04.740Z,100020.99
2022-09-01T05:36:33.574Z,100022.79
2022-09-01T05:39:02.615Z,100024.55
2022-09-01T05:41:30.485Z,100026.70
2022-09-01T05:44:00.829Z,100025.57
2022-09-01T05:46:30.177Z,100030.02
2022-09-01T05:49:00.529Z,100033.23
2022-09-01T05:51:45.789Z,100032.64
2022-09-01T05:54:16.956Z,100031.48
2022-09-01T05:56:45.904Z,100040.95
2022-09-01T05:59:23.076Z,100041.20
2022-09-01T06:01:54.329Z,100040.91
2022-09-01T06:04:23.342Z,100036.70
2022-09-01T06:07:08.513Z,100031.52
2022-09-01T06:09:40.195Z,100031.67
2022-09-01T06:12:09.800Z,100031.81
2022-09-01T06:14:38.089Z,100036.73
2022-09-01T06:17:11.712Z,100035.45
2022-09-01T06:19:40.974Z,100030.35
2022-09-01T06:22:10.786Z,100027.98
2022-09-01T06:24:43.566Z,100040.50
2022-09-01T06:27:13.246Z,100041.98
2022-09-01T06:29:41.816Z,100042.05
2022-09-01T06:32:10.600Z,100043.19
2022-09-01T06:34:40.386Z,100046.79
2022-09-01T06:37:08.559Z,100045.08
2022-09-01T06:39:36.816Z,100046.09
2022-09-01T06:42:06.215Z,100048.55
2022-09-01T06:44:46.321Z,100049.90
2022-09-01T06:47:15.730Z,100053.27
2022-09-01T06:49:45.194Z,100055.10
2022-09-01T06:52:20.940Z,100055.23
2022-09-01T06:54:51.472Z,100058.74
2022-09-01T07:00:15.974Z,100056.33
2022-09-01T07:02:45.631Z,100049.42
2022-09-01T07:08:17.988Z,100053.94
2022-09-01T07:14:16.590Z,100059.98
2022-09-01T07:16:52.470Z,100062.58
2022-09-01T07:19:22.185Z,100063.62
2022-09-01T07:22:07.006Z,100060.88
2022-09-01T07:24:36.482Z,100065.05
2022-09-01T07:27:35.970Z,100072.51
2022-09-01T07:30:09.668Z,100080.77
2022-09-01T07:32:44.080Z,100079.93
2022-09-01T07:35:20.249Z,100080.45
2022-09-01T07:38:48.407Z,100071.20
2022-09-01T07:43:45.755Z,100049.86
2022-09-01T07:46:37.056Z,100048.95
2022-09-01T07:51:57.157Z,100035.83
2022-09-01T07:54:27.626Z,100033.16
2022-09-01T07:56:57.430Z,100039.08
2022-09-01T07:59:28.677Z,100044.33
2022-09-01T08:02:06.643Z,100049.40
2022-09-01T08:04:34.759Z,100050.91
2022-09-01T08:07:04.234Z,100056.10
2022-09-01T08:09:37.451Z,100061.48
2022-09-01T08:12:07.876Z,100065.17
2022-09-01T08:14:40.836Z,100065.55
2022-09-01T08:17:17.514Z,100062.81
2022-09-01T08:19:59.827Z,100061.39
2022-09-01T08:22:46.593Z,100059.59
2022-09-01T08:25:32.742Z,100056.13
2022-09-01T08:28:01.557Z,100049.94
2022-09-01T08:30:32.597Z,100046.71
2022-09-01T08:33:10.152Z,100037.81
2022-09-01T08:35:40.786Z,100031.56
2022-09-01T08:38:09.480Z,100032.31
2022-09-01T08:40:38.097Z,100034.10
2022-09-01T08:43:15.678Z,100032.16
2022-09-01T08:45:47.865Z,100036.89
2022-09-01T08:49:23.838Z,100042.11
2022-09-01T08:51:22.926Z,100044.22
2022-09-01T08:54:29.840Z,100043.20
2022-09-01T08:57:09.348Z,100043.01
2022-09-01T08:59:57.807Z,100039.83
2022-09-01T09:02:51.057Z,100040.95
2022-09-01T09:05:25.536Z,100038.88
2022-09-01T09:08:11.212Z,100035.67
2022-09-01T09:10:39.130Z,100035.52
2022-09-01T09:13:36.731Z,100035.48
2022-09-01T09:16:08.830Z,100035.33
2022-09-01T09:19:00.609Z,100038.87
2022-09-01T09:21:30.105Z,100039.09
2022-09-01T09:24:21.728Z,100035.73
2022-09-01T09:26:51.152Z,100035.09
2022-09-01T09:29:20.865Z,100036.25
2022-09-01T09:31:50.758Z,100037.68
2022-09-01T09:34:39.775Z,100038.63
2022-09-01T09:37:23.168Z,100032.55
2022-09-01T09:40:11.811Z,100036.14
2022-09-01T09:42:40.953Z,100036.00
2022-09-01T09:45:23.182Z,100037.37
2022-09-01T09:47:51.877Z,100043.29
2022-09-01T09:50:28.188Z,100045.60
2022-09-01T09:53:14.732Z,100046.64
2022-09-01T09:55:56.214Z,100047.37
2022-09-01T09:58:26.665Z,100053.07
2022-09-01T10:01:03.738Z,100054.05
2022-09-01T10:03:42.027Z,100049.10
2022-09-01T10:06:11.163Z,100048.88
2022-09-01T10:08:45.449Z,100050.92
2022-09-01T10:11:35.656Z,100053.16
2022-09-01T10:14:13.755Z,100053.43
2022-09-01T10:16:53.861Z,100057.38
2022-09-01T10:19:22.929Z,100052.98
2022-09-01T10:21:51.229Z,100054.54
2022-09-01T10:24:30.900Z,100059.23
2022-09-01T10:27:25.242Z,100058.40
2022-09-01T10:30:13.569Z,100063.03
2022-09-01T10:32:56.028Z,100063.38
2022-09-01T10:35:30.102Z,100064.47
2022-09-01T10:37:59.422Z,100065.36
2022-09-01T10:40:31.058Z,100072.27
2022-09-01T10:43:05.391Z,100079.58
2022-09-01T10:45:35.816Z,100083.77
2022-09-01T10:48:51.976Z,100085.91
2022-09-01T10:51:10.108Z,100085.86
2022-09-01T10:53:52.943Z,100086.65
2022-09-01T10:56:28.868Z,100088.13
2022-09-01T11:01:51.808Z,100092.46
2022-09-01T11:04:41.349Z,100097.33
2022-09-01T11:07:32.735Z,100097.73
2022-09-01T11:10:33.676Z,100095.65
2022-09-01T11:13:08.341Z,100097.83
2022-09-01T11:15:40.762Z,100094.64
2022-09-01T11:18:10.571Z,100091.98
2022-09-01T11:20:43.097Z,100088.34
2022-09-01T11:23:23.693Z,100087.13
2022-09-01T11:28:42.092Z,100083.48
2022-09-01T11:31:09.983Z,100080.88
2022-09-01T11:33:56.811Z,100079.36
2022-09-01T11:36:29.834Z,100078.14
2022-09-01T11:39:16.236Z,100073.71
2022-09-01T11:41:45.871Z,100071.47
2022-09-01T11:44:30.806Z,100067.58
2022-09-01T11:47:02.217Z,100061.89
2022-09-01T11:49:29.968Z,100062.80
2022-09-01T11:51:59.605Z,100065.16
2022-09-01T11:54:28.944Z,100065.96
2022-09-01T11:56:56.976Z,100064.23
2022-09-01T11:59:35.329Z,100066.75
2022-09-01T12:02:04.225Z,100067.73
2022-09-01T12:04:35.691Z,100068.63
2022-09-01T12:07:14.564Z,100068.70
2022-09-01T12:09:43.761Z,100070.05
2022-09-01T12:12:29.435Z,100068.86
2022-09-01T12:15:06.010Z,100073.42
2022-09-01T12:17:35.753Z,100075.92
2022-09-01T12:20:28.648Z,100077.52
2022-09-01T12:22:58.870Z,100074.83
2022-09-01T12:25:28.421Z,100078.92
2022-09-01T12:27:57.257Z,100084.10
2022-09-01T12:30:26.042Z,100084.52
2022-09-01T12:33:22.968Z,100084.86
2022-09-01T12:35:43.926Z,100089.13
2022-09-01T12:38:21.699Z,100094.31
2022-09-01T12:40:51.643Z,100095.30
2022-09-01T12:43:28.607Z,100095.60
2022-09-01T12:45:59.892Z,100098.02
2022-09-01T12:48:33.455Z,100099.87
2022-09-01T12:51:03.054Z,100097.11
2022-09-01T12:53:36.127Z,100099.58
2022-09-01T12:56:28.570Z,100097.77
2022-09-01T12:59:04.356Z,100097.41
2022-09-01T13:01:33.575Z,100091.55
2022-09-01T13:04:10.768Z,100091.16
2022-09-01T13:06:38.860Z,100089.30
2022-09-01T13:09:07.356Z,100087.39
2022-09-01T13:14:24.187Z,100084.29
2022-09-01T13:16:52.183Z,100084.91
2022-09-01T13:19:27.365Z,100087.54
2022-09-01T13:21:56.002Z,100086.66
2022-09-01T13:24:28.057Z,100085.09
2022-09-01T13:29:46.715Z,100088.14
2022-09-01T13:32:18.347Z,100090.41
2022-09-01T13:34:50.355Z,100090.41
2022-09-01T13:37:19.732Z,100095.77
2022-09-01T13:39:48.552Z,100096.27
2022-09-01T13:42:17.390Z,100098.40
2022-09-01T13:44:48.394Z,100098.48
2022-09-01T13:47:33.248Z,100092.80
2022-09-01T13:50:19.875Z,100094.60
2022-09-01T13:52:54.903Z,100094.71
2022-09-01T13:55:25.351Z,100095.96
2022-09-01T13:57:55.811Z,100092.09
2022-09-01T14:00:25.088Z,100088.88
2022-09-01T14:02:54.903Z,100082.52
2022-09-01T14:05:24.775Z,100081.58
2022-09-01T14:07:52.998Z,100084.68
2022-09-01T14:10:21.777Z,100080.02
2022-09-01T14:12:50.672Z,100082.36
2022-09-01T14:15:23.705Z,100082.71
2022-09-01T14:17:56.476Z,100084.59
2022-09-01T14:20:26.191Z,100079.89
2022-09-01T14:22:55.959Z,100081.00
2022-09-01T14:25:24.499Z,100088.13
2022-09-01T14:27:53.677Z,100085.63
2022-09-01T14:30:24.867Z,100083.83
2022-09-01T14:32:55.872Z,100079.23
2022-09-01T14:35:26.711Z,100078.80
2022-09-01T14:37:54.917Z,100077.64
2022-09-01T14:40:24.364Z,100078.56
2022-09-01T14:42:53.132Z,100078.35
2022-09-01T14:45:26.198Z,100072.59
2022-09-01T14:47:56.209Z,100069.90
2022-09-01T14:50:25.103Z,100070.58
2022-09-01T14:52:55.285Z,100069.87
2022-09-01T14:55:24.412Z,100070.94
2022-09-01T14:57:52.519Z,100070.23
2022-09-01T15:00:20.462Z,100073.27
2022-09-01T15:02:48.903Z,100072.95
2022-09-01T15:05:17.202Z,100075.82
2022-09-01T15:07:45.134Z,100076.10
2022-09-01T15:10:24.916Z,100077.48
2022-09-01T15:12:54.941Z,100078.45
2022-09-01T15:15:23.469Z,100075.45
2022-09-01T15:17:51.544Z,100073.08
2022-09-01T15:20:38.266Z,100077.52
2022-09-01T15:23:06.077Z,100075.48
2022-09-01T15:25:34.389Z,100074.56
2022-09-01T15:28:02.602Z,100075.36
2022-09-01T15:30:31.161Z,100076.23
2022-09-01T15:32:59.717Z,100075.61
2022-09-01T15:35:29.745Z,100078.45
2022-09-01T15:37:58.218Z,100079.15
2022-09-01T15:40:27.033Z,100076.88
2022-09-01T15:42:57.072Z,100075.19
2022-09-01T15:45:25.716Z,100075.27
2022-09-01T15:47:53.650Z,100076.04
2022-09-01T15:50:22.969Z,100079.36
2022-09-01T15:52:57.928Z,100077.45
2022-09-01T15:55:30.566Z,100078.11
2022-09-01T15:57:58.935Z,100080.80
2022-09-01T16:00:27.723Z,100081.61
2022-09-01T16:02:57.785Z,100080.39
2022-09-01T16:05:26.038Z,100081.09
2022-09-01T16:10:30.368Z,100086.57
2022-09-01T16:13:01.821Z,100083.86
2022-09-01T16:15:30.054Z,100086.07
2022-09-01T16:18:21.230Z,100088.92
2022-09-01T16:21:18.567Z,100088.30
2022-09-01T16:23:49.249Z,100090.88
2022-09-01T16:26:18.047Z,100092.16
2022-09-01T16:28:50.621Z,100089.30
2022-09-01T16:31:25.001Z,100093.73
2022-09-01T16:33:56.214Z,100091.70
2022-09-01T16:36:26.666Z,100091.79
2022-09-01T16:38:59.468Z,100091.73
2022-09-01T16:41:44.542Z,100092.38
2022-09-01T16:44:15.319Z,100095.67
2022-09-01T16:47:03.425Z,100087.85
2022-09-01T16:49:34.550Z,100091.83
2022-09-01T16:52:07.290Z,100088.73
2022-09-01T16:54:55.697Z,100094.06
2022-09-01T16:57:28.400Z,100092.64
2022-09-01T17:00:00.590Z,100095.09
2022-09-01T17:02:31.527Z,100097.70
2022-09-01T17:05:03.555Z,100099.33
2022-09-01T17:07:49.605Z,100102.01
2022-09-01T17:10:17.628Z,100104.48
2022-09-01T17:12:53.252Z,100110.46
2022-09-01T17:15:31.590Z,100110.12
2022-09-01T17:18:08.050Z,100112.17
2022-09-01T17:20:40.269Z,100112.65
2022-09-01T17:23:12.224Z,100111.45
2022-09-01T17:25:51.216Z,100111.52
2022-09-01T17:28:25.148Z,100109.31
2022-09-01T17:31:14.563Z,100109.31
2022-09-01T17:34:02.775Z,100108.35
2022-09-01T17:36:49.179Z,100107.92
2022-09-01T17:39:29.978Z,100107.27
2022-09-01T17:42:04.911Z,100110.27
2022-09-01T17:44:45.718Z,100108.18
2022-09-01T17:47:39.876Z,100114.44
2022-09-01T17:50:14.101Z,100112.65
2022-09-01T17:52:42.146Z,100119.11
2022-09-01T17:55:21.312Z,100120.50
2022-09-01T17:57:49.220Z,100123.35
2022-09-01T18:00:23.394Z,100127.23
2022-09-01T18:02:58.877Z,100127.89
2022-09-01T18:05:28.171Z,100129.98
2022-09-01T18:08:01.146Z,100131.70
2022-09-01T18:10:39.055Z,100135.17
2022-09-01T18:13:10.199Z,100138.42
2022-09-01T18:15:45.411Z,100143.79
2022-09-01T18:18:26.458Z,100150.22
2022-09-01T18:21:01.781Z,100150.25
2022-09-01T18:23:31.319Z,100153.89
2022-09-01T18:26:05.657Z,100150.69
2022-09-01T18:28:33.346Z,100145.86
2022-09-01T18:31:05.670Z,100149.70
2022-09-01T18:33:44.828Z,100152.58
2022-09-01T18:36:17.668Z,100156.30
2022-09-01T18:39:03.637Z,100156.52
2022-09-01T18:41:52.445Z,100157.16
2022-09-01T18:44:23.739Z,100155.04
2022-09-01T18:47:03.777Z,100153.83
2022-09-01T18:49:37.709Z,100152.40
2022-09-01T18:52:22.597Z,100154.88
2022-09-01T18:55:04.619Z,100151.21
2022-09-01T18:57:42.768Z,100155.56
2022-09-01T19:00:19.501Z,100156.89
2022-09-01T19:02:53.590Z,100159.52
2022-09-01T19:05:33.251Z,100158.50
2022-09-01T19:08:07.627Z,100157.02
2022-09-01T19:10:43.120Z,100157.37
2022-09-01T19:13:14.432Z,100160.88
2022-09-01T19:15:46.140Z,100164.38
2022-09-01T19:18:17.202Z,100165.66
2022-09-01T19:21:04.597Z,100170.79
2022-09-01T19:23:46.590Z,100169.38
2022-09-01T19:26:21.721Z,100172.27
2022-09-01T19:28:49.399Z,100172.11
2022-09-01T19:31:21.318Z,100168.06
2022-09-01T19:34:01.469Z,100167.15
2022-09-01T19:36:38.423Z,100167.54
2022-09-01T19:39:08.526Z,100168.52
2022-09-01T19:41:40.724Z,100162.55
2022-09-01T19:44:27.097Z,100169.20
2022-09-01T19:47:07.883Z,100163.91
2022-09-01T19:49:42.954Z,100156.48
2022-09-01T19:52:18.001Z,100147.45
2022-09-01T19:55:15.206Z,100149.27
2022-09-01T19:57:50.008Z,100150.27
2022-09-01T20:00:32.023Z,100158.38
2022-09-01T20:03:21.733Z,100161.20
2022-09-01T20:05:52.158Z,100162.42
2022-09-01T20:08:25.813Z,100163.16
2022-09-01T20:11:12.774Z,100163.51
2022-09-01T20:13:46.721Z,100160.85
2022-09-01T20:16:35.471Z,100161.63
2022-09-01T20:19:06.634Z,100163.30
2022-09-01T20:21:40.201Z,100165.90
2022-09-01T20:24:28.557Z,100167.91
2022-09-01T20:27:15.331Z,100165.73
2022-09-01T20:29:55.987Z,100169.95
2022-09-01T20:32:30.508Z,100170.73
2022-09-01T20:35:16.584Z,100169.11
2022-09-01T20:37:50.533Z,100171.52
2022-09-01T20:40:24.772Z,100175.01
2022-09-01T20:42:52.588Z,100178.27
2022-09-01T20:45:22.528Z,100181.38
2022-09-01T20:47:54.662Z,100180.52
2022-09-01T20:50:46.256Z,100176.33
2022-09-01T20:53:14.033Z,100185.39
2022-09-01T20:55:48.335Z,100186.66
2022-09-01T20:58:27.772Z,100188.16
2022-09-01T21:01:17.553Z,100186.35
2022-09-01T21:04:06.241Z,100189.00
2022-09-01T21:06:50.919Z,100190.39
2022-09-01T21:09:24.972Z,100188.02
2022-09-01T21:12:11.172Z,100188.98
2022-09-01T21:14:38.974Z,100185.32
2022-09-01T21:17:21.761Z,100185.84
2022-09-01T21:19:50.212Z,100184.22
2022-09-01T21:22:22.183Z,100187.95
2022-09-01T21:24:50.810Z,100193.28
2022-09-01T21:27:20.684Z,100193.84
2022-09-01T21:29:48.700Z,100189.38
2022-09-01T21:32:17.124Z,100185.77
2022-09-01T21:34:46.127Z,100185.48
2022-09-01T21:37:14.397Z,100184.73
2022-09-01T21:39:42.428Z,100181.31
2022-09-01T21:42:12.440Z,100181.23
2022-09-01T21:44:40.902Z,100181.69
2022-09-01T21:47:08.949Z,100181.02
2022-09-01T21:49:36.914Z,100182.17
2022-09-01T21:52:05.114Z,100183.59
2022-09-01T21:54:34.196Z,100179.49
2022-09-01T21:57:02.272Z,100178.76
2022-09-01T21:59:30.393Z,100179.93
2022-09-01T22:01:58.378Z,100178.45
2022-09-01T22:04:26.878Z,100174.44
2022-09-01T22:06:55.144Z,100175.86
2022-09-01T22:09:23.090Z,100173.30
2022-09-01T22:11:51.483Z,100168.13
2022-09-01T22:14:20.452Z,100165.81
2022-09-01T22:16:49.093Z,100163.56
2022-09-01T22:19:17.204Z,100161.47
2022-09-01T22:21:48.207Z,100162.21
2022-09-01T22:24:19.219Z,100158.90
2022-09-01T22:26:48.773Z,100156.16
2022-09-01T22:29:18.598Z,100148.40
2022-09-01T22:31:46.767Z,100140.28
2022-09-01T22:34:14.762Z,100142.55
2022-09-01T22:36:44.657Z,100141.71
2022-09-01T22:39:13.318Z,100143.52
2022-09-01T22:41:41.724Z,100142.05
2022-09-01T22:44:10.456Z,100139.21
2022-09-01T22:46:38.765Z,100134.45
2022-09-01T22:49:06.861Z,100136.48
2022-09-01T22:51:37.386Z,100134.41
2022-09-01T22:54:05.716Z,100142.11
2022-09-01T22:56:35.263Z,100147.66
2022-09-01T22:59:05.389Z,100146.13
2022-09-01T23:01:35.133Z,100149.26
2022-09-01T23:04:05.223Z,100147.27
2022-09-01T23:06:34.517Z,100146.86
2022-09-01T23:09:02.922Z,100145.25
2022-09-01T23:11:30.761Z,100144.61
2022-09-01T23:13:59.016Z,100147.48
2022-09-01T23:16:27.429Z,100145.77
2022-09-01T23:18:55.632Z,100146.56
2022-09-01T23:21:27.080Z,100149.34
2022-09-01T23:23:58.739Z,100146.39
2022-09-01T23:26:28.435Z,100143.59
2022-09-01T23:28:57.177Z,100139.64
2022-09-01T23:31:27.596Z,100143.00
2022-09-01T23:33:55.650Z,100138.73
2022-09-01T23:36:25.486Z,100140.73
2022-09-01T23:38:53.971Z,100138.61
2022-09-01T23:41:23.946Z,100139.49
2022-09-01T23:43:52.526Z,100138.32
2022-09-01T23:46:25.308Z,100135.84
2022-09-01T23:48:54.261Z,100130.92
2022-09-01T23:51:22.633Z,100126.87
2022-09-01T23:53:52.161Z,100132.54
2022-09-01T23:56:21.882Z,100131.27
2022-09-01T23:58:50.133Z,100125.81
